sensor_id;sensor_type;location;lat;lon;timestamp;pressure;altitude;pressure_sealevel;temperature;humidity
9249;BME280;4660;41.768;26.198;2023-03-02T00:02:02;101440.47;;;6.56;100.00
9249;BME280;4660;41.768;26.198;2023-03-02T00:04:45;101481.13;;;6.75;100.00
9249;BME280;4660;41.768;26.198;2023-03-02T00:07:23;101480.47;;;6.72;100.00
9249;BME280;4660;41.768;26.198;2023-03-02T00:09:53;101458.31;;;6.55;100.00
9249;BME280;4660;41.768;26.198;2023-03-02T00:12:21;101483.81;;;6.75;100.00
9249;BME280;4660;41.768;26.198;2023-03-02T00:14:48;101474.22;;;6.85;100.00
9249;BME280;4660;41.768;26.198;2023-03-02T00:17:15;101454.66;;;6.71;100.00
9249;BME280;4660;41.768;26.198;2023-03-02T00:19:42;101444.56;;;6.76;100.00
9249;BME280;4660;41.768;26.198;2023-03-02T00:22:11;101456.63;;;6.96;100.00
9249;BME280;4660;41.768;26.198;2023-03-02T00:24:38;101455.13;;;6.77;100.00
9249;BME280;4660;41.768;26.198;2023-03-02T00:27:03;101455.94;;;6.65;100.00
9249;BME280;4660;41.768;26.198;2023-03-02T00:29:30;101421.22;;;6.51;100.00
9249;BME280;4660;41.768;26.198;2023-03-02T00:31:57;101448.41;;;6.72;100.00
9249;BME280;4660;41.768;26.198;2023-03-02T00:34:24;101459.53;;;6.78;100.00
9249;BME280;4660;41.768;26.198;2023-03-02T00:36:50;101453.63;;;6.73;100.00
9249;BME280;4660;41.768;26.198;2023-03-02T00:39:18;101442.00;;;6.60;100.00
9249;BME280;4660;41.768;26.198;2023-03-02T00:41:48;101461.09;;;6.68;100.00
9249;BME280;4660;41.768;26.198;2023-03-02T00:44:15;101446.94;;;6.80;100.00
9249;BME280;4660;41.768;26.198;2023-03-02T00:46:46;101444.06;;;6.83;100.00
9249;BME280;4660;41.768;26.198;2023-03-02T00:49:12;101446.13;;;6.66;100.00
9249;BME280;4660;41.768;26.198;2023-03-02T00:51:39;101458.91;;;6.60;100.00
9249;BME280;4660;41.768;26.198;2023-03-02T00:54:05;101446.97;;;6.66;100.00
9249;BME280;4660;41.768;26.198;2023-03-02T00:56:32;101448.47;;;6.70;100.00
9249;BME280;4660;41.768;26.198;2023-03-02T00:59:12;101437.03;;;6.68;100.00
9249;BME280;4660;41.768;26.198;2023-03-02T01:01:59;101437.63;;;6.59;100.00
9249;BME280;4660;41.768;26.198;2023-03-02T01:04:31;101439.41;;;6.73;100.00
9249;BME280;4660;41.768;26.198;2023-03-02T01:07:09;101446.78;;;6.55;100.00
9249;BME280;4660;41.768;26.198;2023-03-02T01:09:38;101432.19;;;6.46;100.00
9249;BME280;4660;41.768;26.198;2023-03-02T01:12:08;101430.63;;;6.56;100.00
9249;BME280;4660;41.768;26.198;2023-03-02T01:14:39;101446.75;;;6.69;100.00
9249;BME280;4660;41.768;26.198;2023-03-02T01:17:08;101447.91;;;6.79;100.00
9249;BME280;4660;41.768;26.198;2023-03-02T01:19:36;101438.53;;;6.86;100.00
9249;BME280;4660;41.768;26.198;2023-03-02T01:22:04;101445.88;;;6.83;100.00
9249;BME280;4660;41.768;26.198;2023-03-02T01:24:31;101444.38;;;6.79;100.00
9249;BME280;4660;41.768;26.198;2023-03-02T01:26:57;101444.66;;;6.74;100.00
9249;BME280;4660;41.768;26.198;2023-03-02T01:29:25;101442.13;;;6.58;100.00
9249;BME280;4660;41.768;26.198;2023-03-02T01:31:52;101446.19;;;6.50;100.00
9249;BME280;4660;41.768;26.198;2023-03-02T01:34:21;101435.94;;;6.44;100.00
9249;BME280;4660;41.768;26.198;2023-03-02T01:36:48;101446.59;;;6.58;100.00
9249;BME280;4660;41.768;26.198;2023-03-02T01:39:15;101437.69;;;6.72;100.00
9249;BME280;4660;41.768;26.198;2023-03-02T01:41:45;101448.16;;;6.89;100.00
9249;BME280;4660;41.768;26.198;2023-03-02T01:44:43;101448.63;;;6.96;100.00
9249;BME280;4660;41.768;26.198;2023-03-02T01:47:34;101451.13;;;6.84;100.00
9249;BME280;4660;41.768;26.198;2023-03-02T01:52:36;101443.22;;;6.69;100.00
9249;BME280;4660;41.768;26.198;2023-03-02T01:55:06;101435.69;;;6.61;100.00
9249;BME280;4660;41.768;26.198;2023-03-02T01:57:43;101446.19;;;6.50;100.00
9249;BME280;4660;41.768;26.198;2023-03-02T02:00:30;101446.41;;;6.61;100.00
9249;BME280;4660;41.768;26.198;2023-03-02T02:03:18;101436.28;;;6.66;100.00
9249;BME280;4660;41.768;26.198;2023-03-02T02:06:08;101443.34;;;6.67;100.00
9249;BME280;4660;41.768;26.198;2023-03-02T02:08:37;101449.03;;;6.75;100.00
9249;BME280;4660;41.768;26.198;2023-03-02T02:11:08;101456.41;;;6.72;100.00
9249;BME280;4660;41.768;26.198;2023-03-02T02:13:34;101432.81;;;6.64;100.00
9249;BME280;4660;41.768;26.198;2023-03-02T02:16:00;101447.34;;;6.60;100.00
9249;BME280;4660;41.768;26.198;2023-03-02T02:18:28;101442.94;;;6.73;100.00
9249;BME280;4660;41.768;26.198;2023-03-02T02:20:55;101450.66;;;6.78;100.00
9249;BME280;4660;41.768;26.198;2023-03-02T02:23:54;101450.59;;;6.65;100.00
9249;BME280;4660;41.768;26.198;2023-03-02T02:26:36;101435.50;;;6.50;100.00
9249;BME280;4660;41.768;26.198;2023-03-02T02:29:33;101445.09;;;6.40;100.00
9249;BME280;4660;41.768;26.198;2023-03-02T02:32:17;101434.28;;;6.41;100.00
9249;BME280;4660;41.768;26.198;2023-03-02T02:34:52;101454.31;;;6.62;100.00
9249;BME280;4660;41.768;26.198;2023-03-02T02:37:23;101450.59;;;6.65;100.00
9249;BME280;4660;41.768;26.198;2023-03-02T02:39:51;101445.16;;;6.52;100.00
9249;BME280;4660;41.768;26.198;2023-03-02T02:42:40;101451.38;;;6.39;100.00
9249;BME280;4660;41.768;26.198;2023-03-02T02:45:23;101465.13;;;6.47;100.00
9249;BME280;4660;41.768;26.198;2023-03-02T02:48:01;101455.56;;;6.43;100.00
9249;BME280;4660;41.768;26.198;2023-03-02T02:50:32;101453.34;;;6.63;100.00
9249;BME280;4660;41.768;26.198;2023-03-02T02:53:04;101448.50;;;6.42;100.00
9249;BME280;4660;41.768;26.198;2023-03-02T02:55:32;101457.69;;;6.38;100.00
9249;BME280;4660;41.768;26.198;2023-03-02T02:58:02;101430.59;;;6.15;100.00
9249;BME280;4660;41.768;26.198;2023-03-02T03:00:36;101455.56;;;6.43;100.00
9249;BME280;4660;41.768;26.198;2023-03-02T03:04:09;101452.06;;;6.83;100.00
9249;BME280;4660;41.768;26.198;2023-03-02T03:06:17;101455.13;;;6.77;100.00
9249;BME280;4660;41.768;26.198;2023-03-02T03:11:13;101445.25;;;6.65;100.00
9249;BME280;4660;41.768;26.198;2023-03-02T03:13:44;101456.22;;;6.60;100.00
9249;BME280;4660;41.768;26.198;2023-03-02T03:16:14;101457.84;;;6.63;100.00
9249;BME280;4660;41.768;26.198;2023-03-02T03:18:46;101453.91;;;6.83;100.00
9249;BME280;4660;41.768;26.198;2023-03-02T03:21:14;101464.59;;;6.83;100.00
9249;BME280;4660;41.768;26.198;2023-03-02T03:23:44;101466.06;;;6.74;100.00
9249;BME280;4660;41.768;26.198;2023-03-02T03:26:11;101461.09;;;6.68;100.00
9249;BME280;4660;41.768;26.198;2023-03-02T03:28:36;101462.63;;;6.72;100.00
9249;BME280;4660;41.768;26.198;2023-03-02T03:31:03;101454.38;;;6.75;100.00
9249;BME280;4660;41.768;26.198;2023-03-02T03:33:30;101457.91;;;6.76;100.00
9249;BME280;4660;41.768;26.198;2023-03-02T03:35:57;101450.38;;;6.82;100.00
9249;BME280;4660;41.768;26.198;2023-03-02T03:38:24;101455.53;;;6.71;100.00
9249;BME280;4660;41.768;26.198;2023-03-02T03:40:51;101450.97;;;6.73;100.00
9249;BME280;4660;41.768;26.198;2023-03-02T03:43:18;101451.06;;;6.72;100.00
9249;BME280;4660;41.768;26.198;2023-03-02T03:45:45;101459.19;;;6.56;100.00
9249;BME280;4660;41.768;26.198;2023-03-02T03:48:14;101462.06;;;6.53;100.00
9249;BME280;4660;41.768;26.198;2023-03-02T03:50:44;101457.97;;;6.47;100.00
9249;BME280;4660;41.768;26.198;2023-03-02T03:53:12;101462.44;;;6.47;100.00
9249;BME280;4660;41.768;26.198;2023-03-02T03:55:39;101462.66;;;6.44;100.00
9249;BME280;4660;41.768;26.198;2023-03-02T03:58:05;101467.91;;;6.31;100.00
9249;BME280;4660;41.768;26.198;2023-03-02T04:00:32;101451.75;;;6.32;100.00
9249;BME280;4660;41.768;26.198;2023-03-02T04:02:59;101463.59;;;6.28;100.00
9249;BME280;4660;41.768;26.198;2023-03-02T04:05:27;101451.75;;;6.32;100.00
9249;BME280;4660;41.768;26.198;2023-03-02T04:07:57;101460.72;;;6.46;100.00
9249;BME280;4660;41.768;26.198;2023-03-02T04:10:27;101456.63;;;6.40;100.00
9249;BME280;4660;41.768;26.198;2023-03-02T04:12:55;101448.03;;;6.35;100.00
9249;BME280;4660;41.768;26.198;2023-03-02T04:15:21;101462.06;;;6.53;100.00
9249;BME280;4660;41.768;26.198;2023-03-02T04:17:49;101457.09;;;6.47;100.00
9249;BME280;4660;41.768;26.198;2023-03-02T04:20:17;101464.75;;;6.39;100.00
9249;BME280;4660;41.768;26.198;2023-03-02T04:22:45;101453.69;;;6.45;100.00
9249;BME280;4660;41.768;26.198;2023-03-02T04:25:18;101451.50;;;6.37;100.00
9249;BME280;4660;41.768;26.198;2023-03-02T04:27:51;101448.81;;;6.23;100.00
9249;BME280;4660;41.768;26.198;2023-03-02T04:30:29;101460.06;;;6.28;100.00
9249;BME280;4660;41.768;26.198;2023-03-02T04:32:55;101456.44;;;6.43;100.00
9249;BME280;4660;41.768;26.198;2023-03-02T04:35:23;101458.91;;;6.60;100.00
9249;BME280;4660;41.768;26.198;2023-03-02T04:37:51;101458.16;;;6.58;100.00
9249;BME280;4660;41.768;26.198;2023-03-02T04:40:18;101455.94;;;6.65;100.00
9249;BME280;4660;41.768;26.198;2023-03-02T04:42:46;101466.25;;;6.57;100.00
9249;BME280;4660;41.768;26.198;2023-03-02T04:45:13;101469.13;;;6.54;100.00
9249;BME280;4660;41.768;26.198;2023-03-02T04:47:40;101460.53;;;6.49;100.00
9249;BME280;4660;41.768;26.198;2023-03-02T04:50:08;101466.56;;;6.52;100.00
9249;BME280;4660;41.768;26.198;2023-03-02T04:52:36;101466.25;;;6.43;100.00
9249;BME280;4660;41.768;26.198;2023-03-02T04:55:03;101459.97;;;6.58;100.00
9249;BME280;4660;41.768;26.198;2023-03-02T04:57:29;101453.84;;;6.56;100.00
9249;BME280;4660;41.768;26.198;2023-03-02T04:59:56;101455.75;;;6.54;100.00
9249;BME280;4660;41.768;26.198;2023-03-02T05:02:23;101439.81;;;6.52;100.00
9249;BME280;4660;41.768;26.198;2023-03-02T05:04:50;101454.56;;;6.86;100.00
9249;BME280;4660;41.768;26.198;2023-03-02T05:07:17;101451.50;;;6.78;100.00
9249;BME280;4660;41.768;26.198;2023-03-02T05:09:44;101458.31;;;6.70;100.00
9249;BME280;4660;41.768;26.198;2023-03-02T05:12:10;101455.28;;;6.47;100.00
9249;BME280;4660;41.768;26.198;2023-03-02T05:14:37;101478.94;;;6.68;100.00
9249;BME280;4660;41.768;26.198;2023-03-02T05:17:04;101462.81;;;6.69;100.00
9249;BME280;4660;41.768;26.198;2023-03-02T05:19:29;101460.88;;;6.71;100.00
9249;BME280;4660;41.768;26.198;2023-03-02T05:21:55;101483.69;;;6.91;100.00
9249;BME280;4660;41.768;26.198;2023-03-02T05:24:23;101484.75;;;6.88;100.00
9249;BME280;4660;41.768;26.198;2023-03-02T05:26:50;101471.41;;;6.74;100.00
9249;BME280;4660;41.768;26.198;2023-03-02T05:29:17;101484.84;;;6.87;100.00
9249;BME280;4660;41.768;26.198;2023-03-02T05:31:45;101494.91;;;7.10;100.00
9249;BME280;4660;41.768;26.198;2023-03-02T05:34:14;101495.13;;;7.07;100.00
9249;BME280;4660;41.768;26.198;2023-03-02T05:36:43;101488.84;;;6.94;100.00
9249;BME280;4660;41.768;26.198;2023-03-02T05:39:11;101488.13;;;7.05;100.00
9249;BME280;4660;41.768;26.198;2023-03-02T05:41:39;101490.44;;;6.97;100.00
9249;BME280;4660;41.768;26.198;2023-03-02T05:44:06;101495.03;;;7.09;100.00
9249;BME280;4660;41.768;26.198;2023-03-02T05:46:36;101496.75;;;6.96;100.00
9249;BME280;4660;41.768;26.198;2023-03-02T05:49:03;101498.78;;;6.78;100.00
9249;BME280;4660;41.768;26.198;2023-03-02T05:51:30;101478.09;;;6.67;100.00
9249;BME280;4660;41.768;26.198;2023-03-02T05:53:57;101492.59;;;6.77;100.00
9249;BME280;4660;41.768;26.198;2023-03-02T05:56:22;101496.16;;;7.05;100.00
9249;BME280;4660;41.768;26.198;2023-03-02T05:58:50;101497.09;;;7.18;100.00
9249;BME280;4660;41.768;26.198;2023-03-02T06:01:17;101497.88;;;7.06;100.00
9249;BME280;4660;41.768;26.198;2023-03-02T06:03:45;101498.44;;;7.11;100.00
9249;BME280;4660;41.768;26.198;2023-03-02T06:06:11;101488.47;;;7.00;100.00
9249;BME280;4660;41.768;26.198;2023-03-02T06:08:44;101487.13;;;6.93;100.00
9249;BME280;4660;41.768;26.198;2023-03-02T06:11:11;101508.97;;;7.00;100.00
9249;BME280;4660;41.768;26.198;2023-03-02T06:13:38;101507.31;;;7.11;100.00
9249;BME280;4660;41.768;26.198;2023-03-02T06:16:04;101497.47;;;7.12;100.00
9249;BME280;4660;41.768;26.198;2023-03-02T06:18:32;101512.38;;;7.16;100.00
9249;BME280;4660;41.768;26.198;2023-03-02T06:20:59;101517.03;;;7.27;100.00
9249;BME280;4660;41.768;26.198;2023-03-02T06:23:32;101495.88;;;7.36;100.00
9249;BME280;4660;41.768;26.198;2023-03-02T06:25:59;101507.91;;;7.43;100.00
9249;BME280;4660;41.768;26.198;2023-03-02T06:28:26;101511.91;;;7.51;100.00
9249;BME280;4660;41.768;26.198;2023-03-02T06:30:53;101511.91;;;7.51;100.00
9249;BME280;4660;41.768;26.198;2023-03-02T06:33:20;101523.81;;;7.59;100.00
9249;BME280;4660;41.768;26.198;2023-03-02T06:35:47;101509.28;;;7.49;100.00
9249;BME280;4660;41.768;26.198;2023-03-02T06:38:15;101516.00;;;7.29;100.00
9249;BME280;4660;41.768;26.198;2023-03-02T06:40:43;101500.47;;;7.34;100.00
9249;BME280;4660;41.768;26.198;2023-03-02T06:43:10;101519.75;;;7.39;100.00
9249;BME280;4660;41.768;26.198;2023-03-02T06:45:37;101519.50;;;7.57;100.00
9249;BME280;4660;41.768;26.198;2023-03-02T06:48:05;101524.06;;;7.82;100.00
9249;BME280;4660;41.768;26.198;2023-03-02T06:50:33;101517.03;;;8.06;100.00
9249;BME280;4660;41.768;26.198;2023-03-02T06:53:01;101523.03;;;7.97;100.00
9249;BME280;4660;41.768;26.198;2023-03-02T06:55:27;101512.88;;;8.15;100.00
9249;BME280;4660;41.768;26.198;2023-03-02T06:57:58;101522.31;;;8.08;100.00
9249;BME280;4660;41.768;26.198;2023-03-02T07:00:25;101509.31;;;7.89;100.00
9249;BME280;4660;41.768;26.198;2023-03-02T07:03:05;101511.94;;;7.76;100.00
9249;BME280;4660;41.768;26.198;2023-03-02T07:05:31;101515.25;;;7.67;100.00
9249;BME280;4660;41.768;26.198;2023-03-02T07:07:58;101508.25;;;7.52;100.00
9249;BME280;4660;41.768;26.198;2023-03-02T07:10:28;101528.16;;;7.48;100.00
9249;BME280;4660;41.768;26.198;2023-03-02T07:12:56;101521.28;;;7.43;100.00
9249;BME280;4660;41.768;26.198;2023-03-02T07:15:23;101531.88;;;7.85;100.00
9249;BME280;4660;41.768;26.198;2023-03-02T07:17:51;101526.28;;;8.15;100.00
9249;BME280;4660;41.768;26.198;2023-03-02T07:20:18;101509.31;;;8.02;100.00
9249;BME280;4660;41.768;26.198;2023-03-02T07:22:46;101506.31;;;7.93;100.00
9249;BME280;4660;41.768;26.198;2023-03-02T07:25:13;101507.34;;;7.78;100.00
9249;BME280;4660;41.768;26.198;2023-03-02T07:27:40;101521.09;;;7.86;100.00
9249;BME280;4660;41.768;26.198;2023-03-02T07:30:07;101512.75;;;8.04;100.00
9249;BME280;4660;41.768;26.198;2023-03-02T07:32:46;101504.16;;;7.98;100.00
9249;BME280;4660;41.768;26.198;2023-03-02T07:35:13;101521.94;;;7.99;100.00
9249;BME280;4660;41.768;26.198;2023-03-02T07:37:42;101515.28;;;7.92;100.00
9249;BME280;4660;41.768;26.198;2023-03-02T07:40:29;101522.72;;;8.02;100.00
9249;BME280;4660;41.768;26.198;2023-03-02T07:42:57;101491.06;;;7.81;100.00
9249;BME280;4660;41.768;26.198;2023-03-02T07:46:05;101508.44;;;7.88;100.00
9249;BME280;4660;41.768;26.198;2023-03-02T07:48:33;101512.41;;;7.95;100.00
9249;BME280;4660;41.768;26.198;2023-03-02T07:51:02;101519.03;;;7.77;100.00
9249;BME280;4660;41.768;26.198;2023-03-02T07:53:30;101517.38;;;7.62;100.00
9249;BME280;4660;41.768;26.198;2023-03-02T07:56:04;101502.13;;;7.50;100.00
9249;BME280;4660;41.768;26.198;2023-03-02T07:58:30;101485.56;;;7.57;100.00
9249;BME280;4660;41.768;26.198;2023-03-02T08:00:57;101499.59;;;7.61;100.00
9249;BME280;4660;41.768;26.198;2023-03-02T08:03:24;101509.72;;;7.83;100.00
9249;BME280;4660;41.768;26.198;2023-03-02T08:05:51;101475.88;;;7.94;100.00
9249;BME280;4660;41.768;26.198;2023-03-02T08:08:18;101522.72;;;8.27;100.00
9249;BME280;4660;41.768;26.198;2023-03-02T08:10:44;101519.19;;;8.14;100.00
9249;BME280;4660;41.768;26.198;2023-03-02T08:13:10;101520.78;;;8.04;100.00
9249;BME280;4660;41.768;26.198;2023-03-02T08:15:41;101520.47;;;8.08;100.00
9249;BME280;4660;41.768;26.198;2023-03-02T08:18:11;101521.50;;;7.93;100.00
9249;BME280;4660;41.768;26.198;2023-03-02T08:20:38;101495.69;;;7.79;100.00
9249;BME280;4660;41.768;26.198;2023-03-02T08:23:05;101531.22;;;8.08;100.00
9249;BME280;4660;41.768;26.198;2023-03-02T08:25:33;101530.50;;;7.92;100.00
9249;BME280;4660;41.768;26.198;2023-03-02T08:28:01;101542.63;;;7.97;100.00
9249;BME280;4660;41.768;26.198;2023-03-02T08:30:35;101536.44;;;8.10;100.00
9249;BME280;4660;41.768;26.198;2023-03-02T08:33:04;101531.31;;;8.32;100.00
9249;BME280;4660;41.768;26.198;2023-03-02T08:35:31;101536.41;;;8.37;100.00
9249;BME280;4660;41.768;26.198;2023-03-02T08:38:01;101533.44;;;8.14;100.00
9249;BME280;4660;41.768;26.198;2023-03-02T08:40:28;101506.22;;;7.95;100.00
9249;BME280;4660;41.768;26.198;2023-03-02T08:42:55;101489.38;;;7.80;100.00
9249;BME280;4660;41.768;26.198;2023-03-02T08:45:28;101504.56;;;7.92;100.00
9249;BME280;4660;41.768;26.198;2023-03-02T08:48:03;101506.63;;;7.89;100.00
9249;BME280;4660;41.768;26.198;2023-03-02T08:50:52;101514.66;;;7.89;100.00
9249;BME280;4660;41.768;26.198;2023-03-02T08:53:25;101515.75;;;7.99;100.00
9249;BME280;4660;41.768;26.198;2023-03-02T08:55:52;101492.28;;;8.03;100.00
9249;BME280;4660;41.768;26.198;2023-03-02T08:58:23;101502.69;;;8.33;100.00
9249;BME280;4660;41.768;26.198;2023-03-02T09:00:49;101509.75;;;8.34;100.00
9249;BME280;4660;41.768;26.198;2023-03-02T09:03:20;101505.69;;;8.28;100.00
9249;BME280;4660;41.768;26.198;2023-03-02T09:05:46;101496.44;;;8.07;100.00
9249;BME280;4660;41.768;26.198;2023-03-02T09:08:14;101498.50;;;8.16;100.00
9249;BME280;4660;41.768;26.198;2023-03-02T09:10:41;101504.81;;;8.02;100.00
9249;BME280;4660;41.768;26.198;2023-03-02T09:13:08;101499.78;;;7.97;100.00
9249;BME280;4660;41.768;26.198;2023-03-02T09:15:35;101502.66;;;8.07;100.00
9249;BME280;4660;41.768;26.198;2023-03-02T09:18:04;101493.97;;;7.91;100.00
9249;BME280;4660;41.768;26.198;2023-03-02T09:20:36;101519.38;;;7.98;100.00
9249;BME280;4660;41.768;26.198;2023-03-02T09:23:04;101511.47;;;7.96;100.00
9249;BME280;4660;41.768;26.198;2023-03-02T09:25:29;101489.59;;;8.03;100.00
9249;BME280;4660;41.768;26.198;2023-03-02T09:27:56;101472.03;;;8.11;100.00
9249;BME280;4660;41.768;26.198;2023-03-02T09:30:23;101478.91;;;8.41;100.00
9249;BME280;4660;41.768;26.198;2023-03-02T09:32:50;101469.22;;;8.25;100.00
9249;BME280;4660;41.768;26.198;2023-03-02T09:35:18;101464.09;;;8.22;100.00
9249;BME280;4660;41.768;26.198;2023-03-02T09:37:50;101482.75;;;8.24;100.00
9249;BME280;4660;41.768;26.198;2023-03-02T09:40:20;101474.28;;;8.17;100.00
9249;BME280;4660;41.768;26.198;2023-03-02T09:52:39;101457.84;;;8.73;100.00
9249;BME280;4660;41.768;26.198;2023-03-02T09:55:21;101442.38;;;8.64;100.00
9249;BME280;4660;41.768;26.198;2023-03-02T09:57:57;101456.13;;;8.72;100.00
9249;BME280;4660;41.768;26.198;2023-03-02T10:00:40;101377.06;;;8.03;100.00
9249;BME280;4660;41.768;26.198;2023-03-02T10:03:23;101427.44;;;8.23;100.00
9249;BME280;4660;41.768;26.198;2023-03-02T10:06:04;101471.59;;;8.43;100.00
9249;BME280;4660;41.768;26.198;2023-03-02T10:08:38;101448.31;;;8.18;100.00
9249;BME280;4660;41.768;26.198;2023-03-02T10:14:29;101477.94;;;8.29;100.00
9249;BME280;4660;41.768;26.198;2023-03-02T10:19:56;101482.19;;;8.70;100.00
9249;BME280;4660;41.768;26.198;2023-03-02T10:22:52;101472.03;;;8.49;100.00
9249;BME280;4660;41.768;26.198;2023-03-02T10:25:43;101466.66;;;8.49;100.00
9249;BME280;4660;41.768;26.198;2023-03-02T10:28:23;101478.25;;;8.50;100.00
9249;BME280;4660;41.768;26.198;2023-03-02T10:31:09;101472.44;;;8.56;100.00
9249;BME280;4660;41.768;26.198;2023-03-02T10:33:39;101449.72;;;8.49;100.00
9249;BME280;4660;41.768;26.198;2023-03-02T10:36:46;101459.88;;;8.57;100.00
9249;BME280;4660;41.768;26.198;2023-03-02T10:39:15;101454.19;;;8.74;100.00
9249;BME280;4660;41.768;26.198;2023-03-02T10:41:52;101452.53;;;8.84;100.00
9249;BME280;4660;41.768;26.198;2023-03-02T10:44:29;101451.34;;;8.88;100.00
9249;BME280;4660;41.768;26.198;2023-03-02T10:46:57;101440.88;;;8.72;100.00
9249;BME280;4660;41.768;26.198;2023-03-02T10:49:41;101452.75;;;8.81;100.00
9249;BME280;4660;41.768;26.198;2023-03-02T10:52:22;101450.97;;;8.69;100.00
9249;BME280;4660;41.768;26.198;2023-03-02T10:55:01;101460.41;;;8.62;100.00
9249;BME280;4660;41.768;26.198;2023-03-02T10:57:44;101454.03;;;8.51;100.00
9249;BME280;4660;41.768;26.198;2023-03-02T11:00:28;101449.50;;;8.65;100.00
9249;BME280;4660;41.768;26.198;2023-03-02T11:03:20;101452.19;;;8.89;100.00
9249;BME280;4660;41.768;26.198;2023-03-02T11:05:49;101435.53;;;8.96;100.00
9249;BME280;4660;41.768;26.198;2023-03-02T11:08:39;101434.59;;;8.85;100.00
9249;BME280;4660;41.768;26.198;2023-03-02T11:11:21;101448.81;;;8.74;100.00
9249;BME280;4660;41.768;26.198;2023-03-02T11:13:53;101432.91;;;8.71;100.00
9249;BME280;4660;41.768;26.198;2023-03-02T11:16:25;101432.91;;;8.71;100.00
9249;BME280;4660;41.768;26.198;2023-03-02T11:19:06;101438.75;;;8.65;100.00
9249;BME280;4660;41.768;26.198;2023-03-02T11:22:56;101423.44;;;8.54;100.00
9249;BME280;4660;41.768;26.198;2023-03-02T11:25:29;101419.34;;;8.48;100.00
9249;BME280;4660;41.768;26.198;2023-03-02T11:28:53;101416.53;;;8.63;100.00
9249;BME280;4660;41.768;26.198;2023-03-02T11:31:20;101397.44;;;8.67;100.00
9249;BME280;4660;41.768;26.198;2023-03-02T11:34:04;101425.00;;;8.69;100.00
9249;BME280;4660;41.768;26.198;2023-03-02T11:37:05;101421.59;;;8.54;100.00
9249;BME280;4660;41.768;26.198;2023-03-02T11:42:42;101417.97;;;8.30;100.00
9249;BME280;4660;41.768;26.198;2023-03-02T11:45:30;101423.97;;;8.21;100.00
9249;BME280;4660;41.768;26.198;2023-03-02T11:48:41;101405.22;;;8.21;100.00
9249;BME280;4660;41.768;26.198;2023-03-02T11:51:18;101390.53;;;8.26;100.00
9249;BME280;4660;41.768;26.198;2023-03-02T11:54:04;101425.50;;;8.50;100.00
9249;BME280;4660;41.768;26.198;2023-03-02T11:56:37;101421.13;;;8.37;100.00
9249;BME280;4660;41.768;26.198;2023-03-02T11:59:16;101401.25;;;8.14;100.00
9249;BME280;4660;41.768;26.198;2023-03-02T12:01:57;101419.06;;;8.15;100.00
9249;BME280;4660;41.768;26.198;2023-03-02T12:04:32;101401.72;;;8.08;100.00
9249;BME280;4660;41.768;26.198;2023-03-02T12:09:42;101408.34;;;8.15;100.00
9249;BME280;4660;41.768;26.198;2023-03-02T12:12:33;101405.22;;;8.21;100.00
9249;BME280;4660;41.768;26.198;2023-03-02T12:15:01;101397.16;;;8.34;100.00
9249;BME280;4660;41.768;26.198;2023-03-02T12:17:36;101397.84;;;8.37;100.00
9249;BME280;4660;41.768;26.198;2023-03-02T12:20:24;101402.66;;;8.45;100.00
9249;BME280;4660;41.768;26.198;2023-03-02T12:23:05;101397.16;;;8.34;100.00
9249;BME280;4660;41.768;26.198;2023-03-02T12:25:42;101384.34;;;8.00;100.00
9249;BME280;4660;41.768;26.198;2023-03-02T12:28:30;101396.56;;;8.05;100.00
9249;BME280;4660;41.768;26.198;2023-03-02T12:31:11;101401.59;;;8.09;100.00
9249;BME280;4660;41.768;26.198;2023-03-02T12:33:49;101386.06;;;8.02;100.00
9249;BME280;4660;41.768;26.198;2023-03-02T12:36:39;101387.97;;;7.99;100.00
9249;BME280;4660;41.768;26.198;2023-03-02T12:48:46;101384.00;;;7.92;100.00
9249;BME280;4660;41.768;26.198;2023-03-02T12:51:21;101371.06;;;7.86;100.00
9249;BME280;4660;41.768;26.198;2023-03-02T12:53:49;101357.00;;;7.70;100.00
9249;BME280;4660;41.768;26.198;2023-03-02T12:56:48;101374.50;;;7.88;100.00
9249;BME280;4660;41.768;26.198;2023-03-02T12:59:26;101369.88;;;7.90;100.00
9249;BME280;4660;41.768;26.198;2023-03-02T13:02:22;101372.75;;;8.00;100.00
9249;BME280;4660;41.768;26.198;2023-03-02T13:05:02;101363.84;;;7.99;100.00
9249;BME280;4660;41.768;26.198;2023-03-02T13:10:43;101305.59;;;7.78;100.00
9249;BME280;4660;41.768;26.198;2023-03-02T13:13:19;101366.88;;;8.08;100.00
9249;BME280;4660;41.768;26.198;2023-03-02T13:16:01;101366.53;;;7.99;100.00
9249;BME280;4660;41.768;26.198;2023-03-02T13:18:31;101333.47;;;7.75;100.00
9249;BME280;4660;41.768;26.198;2023-03-02T13:21:12;101360.97;;;7.90;100.00
9249;BME280;4660;41.768;26.198;2023-03-02T13:23:50;101375.97;;;8.05;100.00
9249;BME280;4660;41.768;26.198;2023-03-02T13:26:35;101375.84;;;8.07;100.00
9249;BME280;4660;41.768;26.198;2023-03-02T13:29:17;101353.81;;;7.90;100.00
9249;BME280;4660;41.768;26.198;2023-03-02T13:31:54;101350.19;;;8.28;100.00
9249;BME280;4660;41.768;26.198;2023-03-02T13:34:27;101363.06;;;8.36;100.00
9249;BME280;4660;41.768;26.198;2023-03-02T13:36:56;101356.66;;;8.25;100.00
9249;BME280;4660;41.768;26.198;2023-03-02T13:39:26;101354.75;;;8.15;100.00
9249;BME280;4660;41.768;26.198;2023-03-02T13:42:01;101345.31;;;8.09;100.00
9249;BME280;4660;41.768;26.198;2023-03-02T13:44:38;101353.97;;;8.13;100.00
9249;BME280;4660;41.768;26.198;2023-03-02T13:52:29;101262.91;;;7.38;100.00
9249;BME280;4660;41.768;26.198;2023-03-02T13:54:57;101262.66;;;7.54;100.00
9249;BME280;4660;41.768;26.198;2023-03-02T13:57:46;101339.97;;;8.09;100.00
9249;BME280;4660;41.768;26.198;2023-03-02T14:00:24;101339.38;;;8.30;100.00
9249;BME280;4660;41.768;26.198;2023-03-02T14:02:52;101343.53;;;8.46;100.00
9249;BME280;4660;41.768;26.198;2023-03-02T14:05:21;101337.09;;;8.49;100.00
9249;BME280;4660;41.768;26.198;2023-03-02T14:07:54;101345.94;;;8.38;100.00
9249;BME280;4660;41.768;26.198;2023-03-02T14:10:55;101359.09;;;8.41;100.00
9249;BME280;4660;41.768;26.198;2023-03-02T14:14:18;101350.72;;;8.33;100.00
9249;BME280;4660;41.768;26.198;2023-03-02T14:17:22;101312.31;;;8.09;100.00